createdAt,value
2023-04-06T00:01:03.000Z,1004.3
2023-04-06T00:02:18.000Z,1004.4
2023-04-06T00:03:32.000Z,1004.4
2023-04-06T00:04:46.000Z,1004.4
2023-04-06T00:06:01.000Z,1004.3
2023-04-06T00:07:15.000Z,1004.3
2023-04-06T00:08:29.000Z,1004.3
2023-04-06T00:09:44.000Z,1004.3
2023-04-06T00:10:58.000Z,1004.3
2023-04-06T00:12:12.925Z,1004.3
2023-04-06T00:13:27.000Z,1004.3
2023-04-06T00:14:41.000Z,1004.3
2023-04-06T00:15:55.000Z,1004.3
2023-04-06T00:17:10.327Z,1004.3
2023-04-06T00:18:24.000Z,1004.3
2023-04-06T00:19:38.000Z,1004.3
2023-04-06T00:20:52.000Z,1004.3
2023-04-06T00:22:06.000Z,1004.3
2023-04-06T00:23:21.000Z,1004.3
2023-04-06T00:24:35.000Z,1004.3
2023-04-06T00:25:49.000Z,1004.3
2023-04-06T00:27:04.000Z,1004.3
2023-04-06T00:29:32.000Z,1004.3
2023-04-06T00:30:47.000Z,1004.3
2023-04-06T00:32:01.000Z,1004.3
2023-04-06T00:33:16.000Z,1004.3
2023-04-06T00:34:30.000Z,1004.3
2023-04-06T00:35:44.000Z,1004.2
2023-04-06T00:36:58.000Z,1004.2
2023-04-06T00:38:12.464Z,1004.2
2023-04-06T00:40:41.000Z,1004.2
2023-04-06T00:41:55.000Z,1004.2
2023-04-06T00:43:09.000Z,1004.2
2023-04-06T00:44:24.000Z,1004.2
2023-04-06T00:45:38.000Z,1004.2
2023-04-06T00:46:52.000Z,1004.2
2023-04-06T00:48:07.000Z,1004.2
2023-04-06T00:49:21.000Z,1004.2
2023-04-06T00:50:36.024Z,1004.2
2023-04-06T00:51:50.000Z,1004.2
2023-04-06T00:53:03.000Z,1004.2
2023-04-06T00:54:18.000Z,1004.1
2023-04-06T00:56:46.836Z,1004.1
2023-04-06T00:58:01.000Z,1004.1
2023-04-06T00:59:15.000Z,1004.1
2023-04-06T01:00:29.000Z,1004.1
2023-04-06T01:01:44.264Z,1004.1
2023-04-06T01:02:58.000Z,1004.1
2023-04-06T01:04:12.982Z,1004.1
2023-04-06T01:05:27.000Z,1004.1
2023-04-06T01:07:56.000Z,1004.1
2023-04-06T01:09:10.000Z,1004.1
2023-04-06T01:10:23.000Z,1004.1
2023-04-06T01:11:38.000Z,1004.1
2023-04-06T01:12:52.000Z,1004.1
2023-04-06T01:14:06.000Z,1004.1
2023-04-06T01:15:21.000Z,1004.1
2023-04-06T01:16:35.000Z,1004.1
2023-04-06T01:19:04.000Z,1004.1
2023-04-06T01:20:18.000Z,1004.1
2023-04-06T01:21:32.000Z,1004.1
2023-04-06T01:22:46.000Z,1004
2023-04-06T01:25:15.000Z,1004
2023-04-06T01:26:28.000Z,1004
2023-04-06T01:27:42.000Z,1004
2023-04-06T01:28:57.000Z,1004
2023-04-06T01:30:11.000Z,1004
2023-04-06T01:31:25.000Z,1004
2023-04-06T01:32:40.000Z,1004
2023-04-06T01:33:54.000Z,1004
2023-04-06T01:36:23.000Z,1004
2023-04-06T01:37:36.790Z,1003.9
2023-04-06T01:38:51.000Z,1003.9
2023-04-06T01:40:05.000Z,1003.9
2023-04-06T01:41:19.000Z,1003.9
2023-04-06T01:42:34.000Z,1003.9
2023-04-06T01:43:47.000Z,1003.9
2023-04-06T01:45:01.966Z,1003.9
2023-04-06T01:46:16.000Z,1003.9
2023-04-06T01:47:30.000Z,1003.9
2023-04-06T01:48:45.000Z,1003.9
2023-04-06T01:49:59.000Z,1003.9
2023-04-06T01:51:13.000Z,1003.8
2023-04-06T01:52:27.000Z,1003.8
2023-04-06T01:53:41.000Z,1003.8
2023-04-06T01:54:54.000Z,1003.8
2023-04-06T01:56:09.000Z,1003.8
2023-04-06T01:57:23.000Z,1003.8
2023-04-06T01:58:38.000Z,1003.8
2023-04-06T01:59:52.000Z,1003.8
2023-04-06T02:01:06.000Z,1003.8
2023-04-06T02:02:21.000Z,1003.8
2023-04-06T02:03:35.421Z,1003.7
2023-04-06T02:04:49.000Z,1003.8
2023-04-06T02:06:03.000Z,1003.8
2023-04-06T02:07:16.000Z,1003.8
2023-04-06T02:08:30.000Z,1003.8
2023-04-06T02:09:45.289Z,1003.8
2023-04-06T02:10:59.000Z,1003.8
2023-04-06T02:12:14.000Z,1003.8
2023-04-06T02:13:28.000Z,1003.8
2023-04-06T02:14:42.000Z,1003.8
2023-04-06T02:15:57.000Z,1003.8
2023-04-06T02:17:11.000Z,1003.7
2023-04-06T02:18:25.772Z,1003.7
2023-04-06T02:20:54.000Z,1003.7
2023-04-06T02:22:08.000Z,1003.7
2023-04-06T02:23:23.000Z,1003.7
2023-04-06T02:24:37.000Z,1003.7
2023-04-06T02:25:51.000Z,1003.7
2023-04-06T02:27:06.000Z,1003.7
2023-04-06T02:28:20.000Z,1003.7
2023-04-06T02:29:34.000Z,1003.7
2023-04-06T02:32:03.000Z,1003.7
2023-04-06T02:33:18.000Z,1003.7
2023-04-06T02:34:32.000Z,1003.7
2023-04-06T02:37:01.000Z,1003.7
2023-04-06T02:38:15.000Z,1003.7
2023-04-06T02:39:28.875Z,1003.7
2023-04-06T02:40:43.000Z,1003.7
2023-04-06T02:41:57.000Z,1003.7
2023-04-06T02:43:11.945Z,1003.7
2023-04-06T02:44:25.000Z,1003.7
2023-04-06T02:45:39.000Z,1003.7
2023-04-06T02:48:08.000Z,1003.7
2023-04-06T02:49:22.000Z,1003.7
2023-04-06T02:50:37.000Z,1003.7
2023-04-06T02:51:51.000Z,1003.7
2023-04-06T02:53:05.000Z,1003.7
2023-04-06T02:54:19.000Z,1003.7
2023-04-06T02:55:33.000Z,1003.7
2023-04-06T02:56:47.000Z,1003.7
2023-04-06T02:58:02.000Z,1003.7
2023-04-06T02:59:16.000Z,1003.7
2023-04-06T03:00:31.000Z,1003.7
2023-04-06T03:01:45.000Z,1003.7
2023-04-06T03:02:59.000Z,1003.7
2023-04-06T03:04:14.000Z,1003.7
2023-04-06T03:05:28.000Z,1003.7
2023-04-06T03:06:42.000Z,1003.7
2023-04-06T03:07:57.000Z,1003.7
2023-04-06T03:10:25.000Z,1003.7
2023-04-06T03:11:40.000Z,1003.7
2023-04-06T03:12:53.000Z,1003.7
2023-04-06T03:14:07.973Z,1003.6
2023-04-06T03:16:36.000Z,1003.6
2023-04-06T03:17:51.000Z,1003.7
2023-04-06T03:19:05.000Z,1003.6
2023-04-06T03:20:19.000Z,1003.7
2023-04-06T03:21:34.000Z,1003.7
2023-04-06T03:22:48.000Z,1003.7
2023-04-06T03:24:02.000Z,1003.7
2023-04-06T03:25:17.000Z,1003.7
2023-04-06T03:26:31.512Z,1003.7
2023-04-06T03:27:45.000Z,1003.7
2023-04-06T03:28:59.000Z,1003.7
2023-04-06T03:30:13.000Z,1003.7
2023-04-06T03:31:28.000Z,1003.7
2023-04-06T03:32:42.000Z,1003.7
2023-04-06T03:33:56.684Z,1003.7
2023-04-06T03:35:11.000Z,1003.7
2023-04-06T03:36:25.000Z,1003.7
2023-04-06T03:37:39.747Z,1003.7
2023-04-06T03:38:54.000Z,1003.6
2023-04-06T03:40:07.000Z,1003.6
2023-04-06T03:41:20.000Z,1003.6
2023-04-06T03:42:35.303Z,1003.7
2023-04-06T03:43:49.000Z,1003.7
2023-04-06T03:45:04.000Z,1003.7
2023-04-06T03:46:18.000Z,1003.7
2023-04-06T03:47:32.000Z,1003.7
2023-04-06T03:48:47.064Z,1003.7
2023-04-06T03:50:01.000Z,1003.7
2023-04-06T03:51:15.000Z,1003.7
2023-04-06T03:52:30.000Z,1003.7
2023-04-06T03:53:44.000Z,1003.8
2023-04-06T03:54:58.000Z,1003.8
2023-04-06T03:56:13.000Z,1003.8
2023-04-06T03:57:27.000Z,1003.8
2023-04-06T03:58:41.000Z,1003.8
2023-04-06T03:59:55.315Z,1003.8
2023-04-06T04:01:09.000Z,1003.8
2023-04-06T04:02:24.000Z,1003.8
2023-04-06T04:03:38.000Z,1003.8
2023-04-06T04:04:52.000Z,1003.8
2023-04-06T04:06:07.000Z,1003.9
2023-04-06T04:07:21.000Z,1003.9
2023-04-06T04:08:35.000Z,1003.9
2023-04-06T04:09:49.932Z,1003.9
2023-04-06T04:11:04.000Z,1003.9
2023-04-06T04:12:18.000Z,1003.9
2023-04-06T04:13:32.000Z,1003.9
2023-04-06T04:14:47.000Z,1003.9
2023-04-06T04:17:14.000Z,1003.9
2023-04-06T04:18:29.000Z,1003.9
2023-04-06T04:19:43.000Z,1003.9
2023-04-06T04:20:57.000Z,1003.9
2023-04-06T04:22:12.000Z,1003.9
2023-04-06T04:23:26.000Z,1003.9
2023-04-06T04:24:40.000Z,1003.9
2023-04-06T04:25:54.000Z,1003.9
2023-04-06T04:27:09.000Z,1003.9
2023-04-06T04:28:23.000Z,1003.9
2023-04-06T04:29:37.000Z,1003.9
2023-04-06T04:30:52.000Z,1003.9
2023-04-06T04:32:06.000Z,1003.9
2023-04-06T04:33:19.000Z,1003.9
2023-04-06T04:34:34.000Z,1003.9
2023-04-06T04:35:48.000Z,1003.9
2023-04-06T04:37:02.000Z,1003.9
2023-04-06T04:38:16.000Z,1003.9
2023-04-06T04:39:31.000Z,1003.9
2023-04-06T04:40:45.000Z,1003.9
2023-04-06T04:41:59.000Z,1003.9
2023-04-06T04:43:14.000Z,1003.9
2023-04-06T04:45:42.000Z,1004
2023-04-06T04:46:57.055Z,1004
2023-04-06T04:48:11.000Z,1004
2023-04-06T04:49:24.000Z,1004
2023-04-06T04:50:39.019Z,1004
2023-04-06T04:51:53.000Z,1004
2023-04-06T04:53:07.000Z,1004
2023-04-06T04:54:21.000Z,1004
2023-04-06T04:55:36.000Z,1004
2023-04-06T04:56:50.000Z,1004
2023-04-06T04:58:04.000Z,1004
2023-04-06T04:59:19.000Z,1004
2023-04-06T05:00:33.000Z,1004
2023-04-06T05:01:47.000Z,1004
2023-04-06T05:03:02.000Z,1004
2023-04-06T05:04:16.000Z,1004
2023-04-06T05:05:30.000Z,1004
2023-04-06T05:06:44.000Z,1004
2023-04-06T05:07:58.000Z,1004
2023-04-06T05:09:12.000Z,1004
2023-04-06T05:10:26.000Z,1004.1
2023-04-06T05:11:41.000Z,1004.1
2023-04-06T05:12:55.000Z,1004.1
2023-04-06T05:14:09.000Z,1004.1
2023-04-06T05:15:24.000Z,1004.1
2023-04-06T05:16:38.000Z,1004.1
2023-04-06T05:17:52.000Z,1004.1
2023-04-06T05:19:07.000Z,1004.1
2023-04-06T05:20:21.000Z,1004.1
2023-04-06T05:21:35.000Z,1004.1
2023-04-06T05:24:04.191Z,1004.1
2023-04-06T05:25:18.000Z,1004.1
2023-04-06T05:26:32.000Z,1004.1
2023-04-06T05:27:47.000Z,1004.1
2023-04-06T05:29:01.000Z,1004.1
2023-04-06T05:30:15.000Z,1004.1
2023-04-06T05:31:30.000Z,1004.1
2023-04-06T05:32:44.000Z,1004.1
2023-04-06T05:33:58.000Z,1004.1
2023-04-06T05:35:13.000Z,1004.1
2023-04-06T05:36:27.000Z,1004.1
2023-04-06T05:37:41.000Z,1004.1
2023-04-06T05:38:55.000Z,1004
2023-04-06T05:40:10.000Z,1004
2023-04-06T05:41:24.000Z,1004
2023-04-06T05:42:38.000Z,1004
2023-04-06T05:43:53.000Z,1004
2023-04-06T05:45:06.000Z,1003.9
2023-04-06T05:46:20.000Z,1003.9
2023-04-06T05:47:35.000Z,1003.9
2023-04-06T05:48:49.000Z,1003.9
2023-04-06T05:50:03.000Z,1003.9
2023-04-06T05:51:17.953Z,1003.8
2023-04-06T05:52:32.000Z,1003.8
2023-04-06T05:53:46.000Z,1003.8
2023-04-06T05:55:00.000Z,1003.8
2023-04-06T05:57:29.000Z,1003.8
2023-04-06T05:58:43.000Z,1003.8
2023-04-06T05:59:58.000Z,1003.8
2023-04-06T06:01:11.000Z,1003.8
2023-04-06T06:02:25.000Z,1003.8
2023-04-06T06:03:40.000Z,1003.8
2023-04-06T06:04:54.000Z,1003.8
2023-04-06T06:06:08.000Z,1003.8
2023-04-06T06:07:22.000Z,1003.8
2023-04-06T06:08:37.000Z,1003.9
2023-04-06T06:09:51.000Z,1003.9
2023-04-06T06:11:05.816Z,1003.9
2023-04-06T06:12:20.000Z,1004
2023-04-06T06:13:34.000Z,1004
2023-04-06T06:14:48.000Z,1004
2023-04-06T06:16:03.006Z,1004
2023-04-06T06:17:17.000Z,1004
2023-04-06T06:18:31.000Z,1004
2023-04-06T06:19:44.952Z,1004
2023-04-06T06:20:59.000Z,1004
2023-04-06T06:22:13.000Z,1004
2023-04-06T06:23:27.865Z,1004
2023-04-06T06:24:42.000Z,1004
2023-04-06T06:25:56.000Z,1004
2023-04-06T06:27:10.756Z,1004
2023-04-06T06:28:25.000Z,1004
2023-04-06T06:29:39.000Z,1004
2023-04-06T06:30:53.000Z,1004
2023-04-06T06:32:07.000Z,1004
2023-04-06T06:33:22.000Z,1004
2023-04-06T06:34:36.000Z,1004.1
2023-04-06T06:35:49.000Z,1004
2023-04-06T06:37:04.000Z,1003.9
2023-04-06T06:38:18.000Z,1004
2023-04-06T06:39:32.000Z,1004
2023-04-06T06:40:47.000Z,1004
2023-04-06T06:42:01.000Z,1004
2023-04-06T06:44:30.000Z,1004.1
2023-04-06T06:45:44.000Z,1004
2023-04-06T06:46:58.000Z,1004.1
2023-04-06T06:48:12.000Z,1004
2023-04-06T06:49:27.000Z,1003.9
2023-04-06T06:50:41.000Z,1003.9
2023-04-06T06:51:55.000Z,1003.9
2023-04-06T06:53:09.000Z,1004
2023-04-06T06:54:23.000Z,1004
2023-04-06T06:55:37.000Z,1003.9
2023-04-06T06:56:52.070Z,1003.9
2023-04-06T06:58:06.000Z,1003.9
2023-04-06T06:59:20.000Z,1003.9
2023-04-06T07:00:34.967Z,1003.8
2023-04-06T07:01:49.000Z,1003.8
2023-04-06T07:03:03.000Z,1003.8
2023-04-06T07:04:16.000Z,1003.8
2023-04-06T07:05:31.000Z,1003.8
2023-04-06T07:06:45.000Z,1003.7
2023-04-06T07:07:59.000Z,1003.7
2023-04-06T07:09:14.000Z,1003.7
2023-04-06T07:10:28.000Z,1003.7
2023-04-06T07:11:42.713Z,1003.7
2023-04-06T07:12:57.015Z,1003.7
2023-04-06T07:14:11.000Z,1003.7
2023-04-06T07:15:25.633Z,1003.7
2023-04-06T07:16:39.920Z,1003.7
2023-04-06T07:17:54.000Z,1003.7
2023-04-06T07:19:08.514Z,1003.7
2023-04-06T07:20:21.000Z,1003.7
2023-04-06T07:21:36.000Z,1003.7
2023-04-06T07:22:50.000Z,1003.7
2023-04-06T07:24:04.763Z,1003.7
2023-04-06T07:25:19.069Z,1003.7
2023-04-06T07:26:33.000Z,1003.7
2023-04-06T07:27:47.000Z,1003.7
2023-04-06T07:29:02.000Z,1003.7
2023-04-06T07:30:16.278Z,1003.7
2023-04-06T07:31:30.000Z,1003.7
2023-04-06T07:32:44.875Z,1003.8
2023-04-06T07:33:59.174Z,1003.7
2023-04-06T07:35:13.000Z,1003.7
2023-04-06T07:36:27.000Z,1003.7
2023-04-06T07:37:42.000Z,1003.7
2023-04-06T07:38:55.000Z,1003.7
2023-04-06T07:40:09.000Z,1003.7
2023-04-06T07:41:24.000Z,1003.7
2023-04-06T07:42:38.000Z,1003.8
2023-04-06T07:43:52.000Z,1003.8
2023-04-06T07:45:06.000Z,1003.8
2023-04-06T07:46:21.000Z,1003.8
2023-04-06T07:47:35.000Z,1003.8
2023-04-06T07:48:49.000Z,1003.8
2023-04-06T07:50:04.000Z,1003.8
2023-04-06T07:51:18.000Z,1003.8
2023-04-06T07:52:32.000Z,1003.8
2023-04-06T07:53:47.000Z,1003.8
2023-04-06T07:55:00.000Z,1003.8
2023-04-06T07:56:14.000Z,1003.7
2023-04-06T07:57:28.000Z,1003.7
2023-04-06T07:58:43.000Z,1003.7
2023-04-06T07:59:57.584Z,1003.7
2023-04-06T08:01:11.000Z,1003.7
2023-04-06T08:02:26.175Z,1003.7
2023-04-06T08:03:40.000Z,1003.7
2023-04-06T08:04:54.000Z,1003.7
2023-04-06T08:06:09.000Z,1003.7
2023-04-06T08:07:23.390Z,1003.8
2023-04-06T08:09:52.000Z,1003.8
2023-04-06T08:11:06.283Z,1003.8
2023-04-06T08:12:19.000Z,1003.8
2023-04-06T08:13:33.000Z,1003.8
2023-04-06T08:14:48.000Z,1003.8
2023-04-06T08:16:02.000Z,1003.8
2023-04-06T08:17:16.000Z,1003.8
2023-04-06T08:18:31.142Z,1003.8
2023-04-06T08:19:45.000Z,1003.8
2023-04-06T08:20:59.000Z,1003.8
2023-04-06T08:22:14.000Z,1003.8
2023-04-06T08:23:28.000Z,1003.8
2023-04-06T08:24:42.000Z,1003.8
2023-04-06T08:25:56.000Z,1003.8
2023-04-06T08:28:25.543Z,1003.8
2023-04-06T08:29:38.000Z,1003.8
2023-04-06T08:30:53.000Z,1003.8
2023-04-06T08:33:21.000Z,1003.8
2023-04-06T08:34:36.000Z,1003.7
2023-04-06T08:35:50.000Z,1003.7
2023-04-06T08:38:19.000Z,1003.8
2023-04-06T08:39:32.000Z,1003.7
2023-04-06T08:40:45.000Z,1003.8
2023-04-06T08:42:00.000Z,1003.8
2023-04-06T08:43:14.000Z,1003.8
2023-04-06T08:44:28.000Z,1003.8
2023-04-06T08:45:42.000Z,1003.8
2023-04-06T08:46:57.000Z,1003.8
2023-04-06T08:48:11.000Z,1003.8
2023-04-06T08:49:25.000Z,1003.8
2023-04-06T08:50:40.000Z,1003.8
2023-04-06T08:51:54.000Z,1003.8
2023-04-06T08:53:08.000Z,1003.8
2023-04-06T08:54:22.000Z,1003.8
2023-04-06T08:55:35.000Z,1003.8
2023-04-06T08:56:49.000Z,1003.8
2023-04-06T08:58:04.000Z,1003.8
2023-04-06T08:59:18.000Z,1003.8
2023-04-06T09:00:32.000Z,1003.8
2023-04-06T09:01:46.000Z,1003.8
2023-04-06T09:03:01.000Z,1003.8
2023-04-06T09:04:15.531Z,1003.8
2023-04-06T09:05:29.000Z,1003.8
2023-04-06T09:07:58.000Z,1003.8
2023-04-06T09:09:12.730Z,1003.8
2023-04-06T09:10:27.000Z,1003.9
2023-04-06T09:11:41.000Z,1004
2023-04-06T09:12:54.000Z,1004
2023-04-06T09:14:09.000Z,1004
2023-04-06T09:15:23.000Z,1004.1
2023-04-06T09:17:51.000Z,1004.1
2023-04-06T09:19:05.000Z,1004.1
2023-04-06T09:20:19.000Z,1004.1
2023-04-06T09:21:33.000Z,1004.1
2023-04-06T09:22:48.000Z,1004.1
2023-04-06T09:24:02.000Z,1004.1
2023-04-06T09:25:16.000Z,1004.1
2023-04-06T09:26:31.000Z,1004.1
2023-04-06T09:27:45.000Z,1004.1
2023-04-06T09:28:59.761Z,1004.1
2023-04-06T09:30:14.000Z,1004.1
2023-04-06T09:31:28.000Z,1004.1
2023-04-06T09:32:42.673Z,1004.1
2023-04-06T09:33:56.000Z,1004.1
2023-04-06T09:35:11.000Z,1004.1
2023-04-06T09:36:25.000Z,1004.1
2023-04-06T09:37:39.000Z,1004
2023-04-06T09:38:54.000Z,1004.1
2023-04-06T09:40:07.000Z,1004.1
2023-04-06T09:41:20.000Z,1004.1
2023-04-06T09:42:35.000Z,1004.1
2023-04-06T09:43:49.000Z,1004.1
2023-04-06T09:45:03.000Z,1004.1
2023-04-06T09:46:18.000Z,1004.1
2023-04-06T09:47:32.000Z,1004
2023-04-06T09:48:46.000Z,1004.1
2023-04-06T09:50:01.000Z,1004
2023-04-06T09:51:15.000Z,1004
2023-04-06T09:52:29.000Z,1004
2023-04-06T09:53:43.000Z,1004
2023-04-06T09:54:58.000Z,1004
2023-04-06T09:56:12.000Z,1004
2023-04-06T09:57:26.000Z,1004
2023-04-06T09:58:41.000Z,1004
2023-04-06T09:59:55.000Z,1003.9
2023-04-06T10:03:38.000Z,1004
2023-04-06T10:04:52.000Z,1003.9
2023-04-06T10:06:06.000Z,1004
2023-04-06T10:07:20.000Z,1003.9
2023-04-06T10:08:34.000Z,1003.9
2023-04-06T10:09:48.824Z,1004
2023-04-06T10:11:03.000Z,1004
2023-04-06T10:13:31.000Z,1004
2023-04-06T10:14:46.000Z,1004
2023-04-06T10:15:59.000Z,1004
2023-04-06T10:17:13.000Z,1004
2023-04-06T10:18:27.000Z,1004
2023-04-06T10:19:41.000Z,1004
2023-04-06T10:22:09.000Z,1003.9
2023-04-06T10:23:24.000Z,1003.9
2023-04-06T10:24:38.552Z,1003.9
2023-04-06T10:25:52.000Z,1003.9
2023-04-06T10:27:07.143Z,1003.9
2023-04-06T10:28:21.000Z,1003.9
2023-04-06T10:29:35.000Z,1003.9
2023-04-06T10:30:50.000Z,1003.9
2023-04-06T10:32:04.000Z,1003.8
2023-04-06T10:33:18.642Z,1003.8
2023-04-06T10:34:32.000Z,1003.8
2023-04-06T10:35:46.000Z,1003.8
2023-04-06T10:37:00.601Z,1003.8
2023-04-06T10:38:14.000Z,1003.8
2023-04-06T10:39:29.207Z,1003.8
2023-04-06T10:40:43.000Z,1003.8
2023-04-06T10:41:57.000Z,1003.8
2023-04-06T10:43:11.000Z,1003.8
2023-04-06T10:44:25.000Z,1003.8
2023-04-06T10:45:39.000Z,1003.8
2023-04-06T10:46:54.064Z,1003.8
2023-04-06T10:48:08.000Z,1003.8
2023-04-06T10:49:21.000Z,1003.8
2023-04-06T10:50:36.000Z,1003.7
2023-04-06T10:51:50.000Z,1003.8
2023-04-06T10:53:04.621Z,1003.7
2023-04-06T10:54:18.928Z,1003.7
2023-04-06T10:55:33.000Z,1003.7
2023-04-06T10:56:47.000Z,1003.7
2023-04-06T10:58:01.827Z,1003.7
2023-04-06T10:59:16.000Z,1003.7
2023-04-06T11:00:30.000Z,1003.7
2023-04-06T11:02:59.000Z,1003.7
2023-04-06T11:04:13.000Z,1003.6
2023-04-06T11:05:26.000Z,1003.6
2023-04-06T11:06:40.964Z,1003.6
2023-04-06T11:07:55.000Z,1003.6
2023-04-06T11:09:09.000Z,1003.6
2023-04-06T11:10:23.000Z,1003.6
2023-04-06T11:11:38.000Z,1003.5
2023-04-06T11:12:52.000Z,1003.5
2023-04-06T11:14:06.000Z,1003.5
2023-04-06T11:15:20.123Z,1003.6
2023-04-06T11:16:34.000Z,1003.6
2023-04-06T11:17:48.000Z,1003.6
2023-04-06T11:19:03.000Z,1003.6
2023-04-06T11:20:17.000Z,1003.6
2023-04-06T11:21:31.632Z,1003.6
2023-04-06T11:22:45.922Z,1003.6
2023-04-06T11:24:00.227Z,1003.6
2023-04-06T11:25:14.000Z,1003.6
2023-04-06T11:26:28.838Z,1003.6
2023-04-06T11:27:43.000Z,1003.5
2023-04-06T11:28:57.000Z,1003.5
2023-04-06T11:30:11.000Z,1003.6
2023-04-06T11:31:26.000Z,1003.5
2023-04-06T11:32:39.000Z,1003.5
2023-04-06T11:33:53.000Z,1003.5
2023-04-06T11:35:08.000Z,1003.5
2023-04-06T11:36:22.000Z,1003.5
2023-04-06T11:37:36.586Z,1003.5
2023-04-06T11:38:50.000Z,1003.5
2023-04-06T11:40:05.000Z,1003.5
2023-04-06T11:41:19.000Z,1003.4
2023-04-06T11:42:33.000Z,1003.4
2023-04-06T11:43:48.000Z,1003.4
2023-04-06T11:45:02.000Z,1003.4
2023-04-06T11:46:16.000Z,1003.4
2023-04-06T11:47:30.976Z,1003.4
2023-04-06T11:48:44.000Z,1003.4
2023-04-06T11:49:58.634Z,1003.4
2023-04-06T11:51:12.000Z,1003.4
2023-04-06T11:52:27.000Z,1003.4
2023-04-06T11:54:55.000Z,1003.3
2023-04-06T11:56:10.000Z,1003.3
2023-04-06T11:57:24.000Z,1003.4
2023-04-06T11:59:53.000Z,1003.3
2023-04-06T12:01:07.000Z,1003.3
2023-04-06T12:02:21.000Z,1003.3
2023-04-06T12:03:35.921Z,1003.3
2023-04-06T12:04:50.000Z,1003.3
2023-04-06T12:06:04.000Z,1003.2
2023-04-06T12:07:18.000Z,1003.2
2023-04-06T12:08:33.000Z,1003.2
2023-04-06T12:09:47.000Z,1003.2
2023-04-06T12:11:01.000Z,1003.2
2023-04-06T12:12:15.067Z,1003.2
2023-04-06T12:13:29.000Z,1003.2
2023-04-06T12:14:43.000Z,1003.2
2023-04-06T12:15:57.973Z,1003.2
2023-04-06T12:17:12.268Z,1003.2
2023-04-06T12:18:26.572Z,1003.2
2023-04-06T12:19:40.871Z,1003.1
2023-04-06T12:20:55.000Z,1003.1
2023-04-06T12:22:09.000Z,1003.1
2023-04-06T12:23:23.773Z,1003.2
2023-04-06T12:24:38.000Z,1003.1
2023-04-06T12:25:52.000Z,1003.1
2023-04-06T12:27:06.671Z,1003.1
2023-04-06T12:28:21.000Z,1003.1
2023-04-06T12:29:34.000Z,1003.1
2023-04-06T12:32:02.000Z,1003.1
2023-04-06T12:33:17.224Z,1003
2023-04-06T12:34:31.000Z,1003.1
2023-04-06T12:35:45.000Z,1003
2023-04-06T12:38:14.000Z,1003
2023-04-06T12:39:28.000Z,1003
2023-04-06T12:40:43.000Z,1003
2023-04-06T12:41:57.000Z,1003
2023-04-06T12:43:11.000Z,1003
2023-04-06T12:44:25.000Z,1003
2023-04-06T12:45:40.230Z,1003
2023-04-06T12:46:54.000Z,1002.9
2023-04-06T12:48:08.000Z,1003
2023-04-06T12:49:22.187Z,1002.9
2023-04-06T12:50:36.000Z,1002.9
2023-04-06T12:51:50.000Z,1002.9
2023-04-06T12:53:05.096Z,1002.8
2023-04-06T12:54:19.000Z,1002.8
2023-04-06T12:55:33.695Z,1002.8
2023-04-06T12:56:47.986Z,1002.8
2023-04-06T12:58:02.000Z,1002.8
2023-04-06T13:00:30.000Z,1002.7
2023-04-06T13:01:45.198Z,1002.8
2023-04-06T13:02:59.000Z,1002.8
2023-04-06T13:04:13.000Z,1002.8
2023-04-06T13:05:28.000Z,1002.8
2023-04-06T13:06:42.000Z,1002.8
2023-04-06T13:07:56.000Z,1002.8
2023-04-06T13:09:10.997Z,1002.8
2023-04-06T13:10:25.000Z,1002.8
2023-04-06T13:11:38.000Z,1002.8
2023-04-06T13:12:52.000Z,1002.8
2023-04-06T13:14:07.000Z,1002.7
2023-04-06T13:15:21.558Z,1002.7
2023-04-06T13:16:35.000Z,1002.8
2023-04-06T13:17:50.000Z,1002.7
2023-04-06T13:19:04.000Z,1002.7
2023-04-06T13:20:18.000Z,1002.7
2023-04-06T13:21:33.000Z,1002.8
2023-04-06T13:22:47.000Z,1002.7
2023-04-06T13:24:01.000Z,1002.7
2023-04-06T13:25:15.000Z,1002.7
2023-04-06T13:26:30.250Z,1002.7
2023-04-06T13:27:44.000Z,1002.6
2023-04-06T13:28:58.000Z,1002.6
2023-04-06T13:30:13.149Z,1002.6
2023-04-06T13:31:27.463Z,1002.6
2023-04-06T13:32:41.000Z,1002.6
2023-04-06T13:35:10.000Z,1002.6
2023-04-06T13:36:24.000Z,1002.6
2023-04-06T13:37:38.000Z,1002.6
2023-04-06T13:38:53.000Z,1002.6
2023-04-06T13:40:07.000Z,1002.6
2023-04-06T13:41:20.000Z,1002.6
2023-04-06T13:42:35.000Z,1002.6
2023-04-06T13:43:49.000Z,1002.6
2023-04-06T13:45:03.808Z,1002.6
2023-04-06T13:46:18.000Z,1002.6
2023-04-06T13:47:32.000Z,1002.6
2023-04-06T13:48:46.713Z,1002.6
2023-04-06T13:50:01.000Z,1002.5
2023-04-06T13:51:15.312Z,1002.5
2023-04-06T13:52:29.619Z,1002.6
2023-04-06T13:53:43.920Z,1002.5
2023-04-06T13:54:58.000Z,1002.6
2023-04-06T13:56:12.527Z,1002.5
2023-04-06T13:57:26.000Z,1002.6
2023-04-06T13:58:41.000Z,1002.5
2023-04-06T13:59:55.000Z,1002.5
2023-04-06T14:01:09.000Z,1002.5
2023-04-06T14:02:24.000Z,1002.5
2023-04-06T14:03:37.367Z,1002.4
2023-04-06T14:04:51.678Z,1002.5
2023-04-06T14:06:05.000Z,1002.4
2023-04-06T14:07:20.268Z,1002.4
2023-04-06T14:08:34.000Z,1002.4
2023-04-06T14:09:48.000Z,1002.4
2023-04-06T14:11:03.000Z,1002.4
2023-04-06T14:12:17.000Z,1002.4
2023-04-06T14:13:31.000Z,1002.4
2023-04-06T14:14:46.000Z,1002.4
2023-04-06T14:16:00.368Z,1002.4
2023-04-06T14:17:14.000Z,1002.4
2023-04-06T14:18:28.976Z,1002.4
2023-04-06T14:19:42.000Z,1002.4
2023-04-06T14:20:56.000Z,1002.4
2023-04-06T14:22:10.928Z,1002.4
2023-04-06T14:23:25.000Z,1002.4
2023-04-06T14:24:39.000Z,1002.3
2023-04-06T14:25:53.000Z,1002.4
2023-04-06T14:27:08.000Z,1002.3
2023-04-06T14:28:22.000Z,1002.4
2023-04-06T14:29:36.725Z,1002.4
2023-04-06T14:30:51.000Z,1002.4
2023-04-06T14:32:05.000Z,1002.4
2023-04-06T14:33:19.000Z,1002.4
2023-04-06T14:34:33.000Z,1002.4
2023-04-06T14:35:48.000Z,1002.4
2023-04-06T14:37:02.000Z,1002.3
2023-04-06T14:38:16.000Z,1002.4
2023-04-06T14:39:31.000Z,1002.4
2023-04-06T14:40:45.448Z,1002.3
2023-04-06T14:41:59.000Z,1002.4
2023-04-06T14:43:13.000Z,1002.3
2023-04-06T14:46:56.002Z,1002.3
2023-04-06T14:49:24.585Z,1002.3
2023-04-06T14:50:39.000Z,1002.3
2023-04-06T14:51:53.329Z,1002.3
2023-04-06T14:53:07.000Z,1002.2
2023-04-06T14:54:21.000Z,1002.2
2023-04-06T14:55:36.000Z,1002.2
2023-04-06T14:56:50.000Z,1002.2
2023-04-06T14:58:04.000Z,1002.2
2023-04-06T15:00:32.000Z,1002.1
2023-04-06T15:03:01.091Z,1002.2
2023-04-06T15:04:15.000Z,1002.2
2023-04-06T15:05:29.000Z,1002.2
2023-04-06T15:06:43.981Z,1002.2
2023-04-06T15:07:58.000Z,1002.1
2023-04-06T15:09:12.596Z,1002.1
2023-04-06T15:10:26.882Z,1002.1
2023-04-06T15:11:41.000Z,1002.1
2023-04-06T15:12:54.000Z,1002.1
2023-04-06T15:14:07.907Z,1002.1
2023-04-06T15:15:22.000Z,1002.1
2023-04-06T15:16:36.000Z,1002.1
2023-04-06T15:17:50.804Z,1002.1
2023-04-06T15:19:05.000Z,1002.1
2023-04-06T15:20:19.000Z,1002.1
2023-04-06T15:21:33.710Z,1002.1
2023-04-06T15:22:48.005Z,1002.1
2023-04-06T15:24:01.000Z,1002
2023-04-06T15:25:15.674Z,1002.1
2023-04-06T15:26:29.000Z,1002.1
2023-04-06T15:27:44.264Z,1002.1
2023-04-06T15:28:58.000Z,1002.1
2023-04-06T15:30:12.000Z,1002.1
2023-04-06T15:31:27.000Z,1002.1
2023-04-06T15:32:40.000Z,1002.1
2023-04-06T15:33:54.000Z,1002.1
2023-04-06T15:35:09.000Z,1002.2
2023-04-06T15:37:37.000Z,1002.1
2023-04-06T15:38:51.000Z,1002.2
2023-04-06T15:40:05.407Z,1002.2
2023-04-06T15:42:33.996Z,1002.2
2023-04-06T15:43:48.289Z,1002.1
2023-04-06T15:45:02.601Z,1002.1
2023-04-06T15:46:16.000Z,1002.1
2023-04-06T15:47:31.203Z,1002.1
2023-04-06T15:48:45.508Z,1002.1
2023-04-06T15:49:59.795Z,1002.1
2023-04-06T15:51:14.101Z,1002.2
2023-04-06T15:52:28.000Z,1002.2
2023-04-06T15:53:42.000Z,1002.1
2023-04-06T15:54:56.061Z,1002.1
2023-04-06T15:56:10.000Z,1002.2
2023-04-06T15:57:24.000Z,1002.2
2023-04-06T15:58:38.976Z,1002.1
2023-04-06T15:59:53.000Z,1002.2
2023-04-06T16:01:07.000Z,1002.2
2023-04-06T16:02:21.882Z,1002.2
2023-04-06T16:03:36.000Z,1002.1
2023-04-06T16:04:50.000Z,1002.1
2023-04-06T16:06:04.777Z,1002.2
2023-04-06T16:07:18.000Z,1002.1
2023-04-06T16:08:32.000Z,1002.1
2023-04-06T16:09:46.000Z,1002.1
2023-04-06T16:11:01.000Z,1002.1
2023-04-06T16:12:15.000Z,1002.1
2023-04-06T16:13:29.629Z,1002.1
2023-04-06T16:15:58.000Z,1002.2
2023-04-06T16:17:12.540Z,1002.2
2023-04-06T16:18:26.000Z,1002.2
2023-04-06T16:19:41.000Z,1002.2
2023-04-06T16:22:09.000Z,1002.2
2023-04-06T16:23:24.000Z,1002.2
2023-04-06T16:24:37.392Z,1002.2
2023-04-06T16:25:51.000Z,1002.2
2023-04-06T16:27:05.000Z,1002.2
2023-04-06T16:28:20.000Z,1002.2